Bougere, Louisiana
Current Conditions -  °F | °C
As of 9:55 AM on Thursday 30 Oct 2014 (Local Time) from KHEZ Reporting Station
Clear Clear  
Wind Chill: 61°   Ceiling: Unl
Heat Index: 61°   Visibility: 10mi
Dew Point: 45°   Wind: 7mph
Humidity: 55%   Direction: 80°E
Pressure: 30.18"   Gusts: NA
Location:  31.5712°N, 91.5148°W
Report Text: KHEZ 301455Z AUTO 08006KT 10SM CLR 16/07 A3018 RMK AO1 52014
Loading
Personal Weather Stations






























Interactive Weather Map
Tropical Storm Tracking
New forecast layout! Learn more

10-Day Weather Forecast

Advertisements
Track Severe Weather on mobile